Herscher, Illinois
Current Conditions -  °F | °C
As of 2:15 PM on Sunday 23 Nov 2014 (Local Time) from KIKK Reporting Station
Moderate Rain Moderate Rain  
Wind Chill: 51°   Ceiling: 800
Heat Index: 51°   Visibility: 5mi
Dew Point: 50°   Wind: 10mph
Humidity: 96%   Direction: 140°SE
Pressure: 29.52"   Gusts: NA
Location:  41.05°N, 88.1°W
Report Text: KIKK 232015Z AUTO 14009KT 5SM RA BKN008 OVC013 11/10 A2952 RMK AO2 P0004 T01060100
Loading
Personal Weather Stations






























Interactive Weather Map New forecast layout! Learn more

10-Day Weather Forecast

Advertisements
Track Severe Weather on mobile